createdAt,value
2019-03-22T00:01:50.262Z,39.42
2019-03-22T00:04:19.123Z,37.03
2019-03-22T00:06:47.454Z,35.68
2019-03-22T00:09:16.610Z,35.28
2019-03-22T00:11:44.871Z,35.63
2019-03-22T00:14:13.065Z,34.03
2019-03-22T00:16:41.334Z,29.55
2019-03-22T00:19:09.553Z,32.73
2019-03-22T00:21:37.735Z,35.05
2019-03-22T00:24:05.963Z,29.65
2019-03-22T00:26:35.047Z,33.75
2019-03-22T00:29:03.931Z,32.42
2019-03-22T00:31:34.488Z,36.17
2019-03-22T00:34:02.767Z,34.63
2019-03-22T00:36:32.518Z,43.92
2019-03-22T00:39:00.755Z,39.13
2019-03-22T00:41:29.017Z,47.45
2019-03-22T00:43:57.273Z,43.95
2019-03-22T00:46:25.459Z,38.45
2019-03-22T00:48:53.720Z,40.78
2019-03-22T00:51:22.312Z,40.15
2019-03-22T00:53:51.694Z,35.05
2019-03-22T00:56:23.194Z,36.10
2019-03-22T00:58:51.438Z,39.78
2019-03-22T01:01:20.679Z,37.03
2019-03-22T01:03:51.351Z,35.92
2019-03-22T01:06:19.605Z,35.70
2019-03-22T01:08:47.929Z,38.90
2019-03-22T01:11:16.214Z,33.55
2019-03-22T01:13:44.718Z,33.00
2019-03-22T01:16:14.845Z,40.95
2019-03-22T01:18:43.057Z,33.50
2019-03-22T01:21:11.233Z,35.43
2019-03-22T01:23:41.564Z,35.55
2019-03-22T01:26:09.978Z,36.90
2019-03-22T01:28:40.341Z,37.05
2019-03-22T01:31:08.570Z,38.08
2019-03-22T01:33:36.801Z,29.75
2019-03-22T01:36:05.365Z,32.30
2019-03-22T01:38:33.571Z,34.85
2019-03-22T01:41:04.006Z,33.23
2019-03-22T01:43:32.182Z,32.25
2019-03-22T01:46:00.429Z,36.85
2019-03-22T01:48:30.715Z,38.30
2019-03-22T01:51:00.566Z,42.80
2019-03-22T01:53:28.871Z,44.98
2019-03-22T01:56:01.733Z,46.50
2019-03-22T01:58:29.980Z,48.35
2019-03-22T02:01:00.311Z,46.23
2019-03-22T02:03:28.477Z,45.78
2019-03-22T02:05:58.637Z,52.53
2019-03-22T02:08:30.199Z,48.90
2019-03-22T02:10:58.410Z,49.30
2019-03-22T02:13:27.807Z,49.85
2019-03-22T02:15:56.597Z,47.90
2019-03-22T02:18:25.330Z,48.13
2019-03-22T02:20:53.523Z,41.95
2019-03-22T02:23:21.716Z,43.10
2019-03-22T02:25:49.957Z,41.02
2019-03-22T02:28:21.587Z,40.23
2019-03-22T02:30:50.673Z,41.65
2019-03-22T02:33:20.420Z,39.25
2019-03-22T02:35:48.620Z,41.50
2019-03-22T02:38:16.897Z,35.95
2019-03-22T02:40:45.182Z,37.15
2019-03-22T02:43:15.762Z,42.60
2019-03-22T02:45:48.483Z,37.88
2019-03-22T02:48:16.758Z,37.38
2019-03-22T02:50:44.964Z,35.85
2019-03-22T02:53:13.621Z,43.28
2019-03-22T02:55:41.855Z,38.30
2019-03-22T02:58:20.606Z,36.95
2019-03-22T03:00:40.215Z,39.35
2019-03-22T03:03:09.946Z,37.20
2019-03-22T03:05:38.486Z,37.38
2019-03-22T03:08:06.676Z,38.35
2019-03-22T03:10:34.847Z,41.30
2019-03-22T03:13:03.073Z,43.87
2019-03-22T03:15:37.584Z,40.12
2019-03-22T03:18:11.407Z,41.15
2019-03-22T03:20:39.640Z,44.48
2019-03-22T03:23:10.179Z,47.90
2019-03-22T03:25:38.876Z,41.58
2019-03-22T03:28:07.181Z,38.85
2019-03-22T03:30:37.088Z,39.50
2019-03-22T03:33:06.128Z,40.92
2019-03-22T03:35:34.393Z,38.38
2019-03-22T03:38:02.713Z,38.88
2019-03-22T03:40:33.442Z,43.87
2019-03-22T03:43:04.926Z,39.40
2019-03-22T03:45:36.091Z,38.85
2019-03-22T03:48:04.693Z,37.38
2019-03-22T03:50:32.981Z,40.67
2019-03-22T03:53:01.366Z,37.33
2019-03-22T03:55:29.686Z,40.20
2019-03-22T03:57:58.199Z,42.35
2019-03-22T04:00:26.439Z,34.65
2019-03-22T04:02:56.838Z,35.65
2019-03-22T04:05:25.214Z,31.27
2019-03-22T04:07:53.470Z,38.48
2019-03-22T04:10:26.470Z,35.60
2019-03-22T04:12:54.978Z,35.85
2019-03-22T04:15:23.264Z,37.33
2019-03-22T04:17:53.649Z,37.53
2019-03-22T04:20:24.959Z,39.35
2019-03-22T04:22:55.189Z,38.35
2019-03-22T04:25:24.314Z,36.28
2019-03-22T04:27:53.596Z,39.00
2019-03-22T04:30:22.979Z,36.90
2019-03-22T04:32:51.215Z,38.30
2019-03-22T04:35:20.869Z,46.85
2019-03-22T04:37:51.337Z,43.48
2019-03-22T04:40:23.692Z,38.60
2019-03-22T04:42:53.793Z,35.03
2019-03-22T04:45:22.357Z,41.53
2019-03-22T04:47:53.338Z,36.03
2019-03-22T04:50:24.498Z,43.38
2019-03-22T04:52:53.226Z,39.18
2019-03-22T04:55:21.860Z,44.27
2019-03-22T04:57:53.043Z,41.08
2019-03-22T05:00:21.783Z,44.38
2019-03-22T05:02:51.868Z,43.83
2019-03-22T05:05:20.494Z,42.67
2019-03-22T05:07:49.572Z,41.55
2019-03-22T05:10:25.254Z,42.30
2019-03-22T05:12:54.988Z,37.78
2019-03-22T05:15:24.175Z,40.25
2019-03-22T05:17:52.479Z,43.10
2019-03-22T05:20:21.870Z,44.15
2019-03-22T05:22:51.669Z,34.05
2019-03-22T05:25:20.641Z,39.48
2019-03-22T05:27:49.742Z,41.85
2019-03-22T05:30:54.940Z,37.00
2019-03-22T05:33:23.240Z,38.67
2019-03-22T05:35:51.442Z,37.03
2019-03-22T05:38:19.730Z,34.10
2019-03-22T05:40:51.238Z,42.48
2019-03-22T05:43:19.627Z,45.25
2019-03-22T05:45:47.851Z,40.23
2019-03-22T05:48:16.155Z,44.35
2019-03-22T05:50:44.405Z,38.58
2019-03-22T05:53:12.898Z,38.70
2019-03-22T05:55:41.505Z,38.53
2019-03-22T05:58:11.466Z,37.75
2019-03-22T06:00:40.032Z,37.23
2019-03-22T06:03:08.309Z,41.65
2019-03-22T06:05:38.794Z,41.00
2019-03-22T06:08:07.065Z,39.48
2019-03-22T06:10:36.435Z,40.92
2019-03-22T06:13:04.702Z,37.35
2019-03-22T06:15:32.835Z,42.88
2019-03-22T06:18:00.998Z,41.50
2019-03-22T06:20:29.161Z,42.15
2019-03-22T06:22:57.314Z,39.18
2019-03-22T06:25:25.476Z,42.10
2019-03-22T06:27:53.667Z,41.50
2019-03-22T06:30:21.842Z,42.50
2019-03-22T06:32:49.969Z,49.05
2019-03-22T06:35:18.098Z,42.03
2019-03-22T06:37:46.217Z,36.77
2019-03-22T06:40:14.444Z,43.25
2019-03-22T06:42:42.626Z,52.33
2019-03-22T06:45:10.975Z,57.95
2019-03-22T06:47:39.090Z,55.73
2019-03-22T06:50:07.249Z,55.43
2019-03-22T06:52:35.378Z,60.10
2019-03-22T06:55:03.581Z,61.68
2019-03-22T06:57:31.719Z,66.47
2019-03-22T07:00:13.779Z,72.80
2019-03-22T07:02:42.150Z,80.32
2019-03-22T07:05:10.286Z,71.05
2019-03-22T07:07:38.434Z,76.12
2019-03-22T07:10:06.687Z,71.57
2019-03-22T07:12:34.835Z,76.42
2019-03-22T07:15:02.935Z,73.07
2019-03-22T07:17:31.081Z,82.90
2019-03-22T07:19:59.187Z,71.57
2019-03-22T07:22:27.346Z,64.77
2019-03-22T07:24:55.477Z,62.75
2019-03-22T07:27:23.598Z,72.03
2019-03-22T07:29:51.909Z,66.90
2019-03-22T07:32:20.056Z,67.25
2019-03-22T07:34:48.151Z,60.65
2019-03-22T07:37:16.275Z,61.00
2019-03-22T07:39:44.437Z,59.13
2019-03-22T07:42:12.591Z,53.65
2019-03-22T07:44:40.685Z,67.85
2019-03-22T07:47:08.923Z,59.53
2019-03-22T07:49:37.034Z,56.98
2019-03-22T07:52:05.282Z,55.70
2019-03-22T07:54:33.395Z,52.55
2019-03-22T07:57:01.555Z,52.17
2019-03-22T07:59:29.686Z,54.15
2019-03-22T08:01:57.825Z,48.35
2019-03-22T08:04:26.053Z,52.53
2019-03-22T08:06:54.186Z,50.35
2019-03-22T08:09:22.322Z,44.00
2019-03-22T08:11:50.406Z,44.13
2019-03-22T08:14:18.544Z,49.00
2019-03-22T08:16:46.630Z,44.38
2019-03-22T08:19:14.745Z,47.45
2019-03-22T08:21:42.844Z,44.00
2019-03-22T08:24:10.950Z,39.95
2019-03-22T08:26:39.089Z,40.28
2019-03-22T08:29:07.254Z,44.27
2019-03-22T08:31:38.404Z,38.98
2019-03-22T08:34:06.571Z,39.95
2019-03-22T08:36:34.665Z,41.77
2019-03-22T08:39:02.943Z,40.70
2019-03-22T08:41:31.135Z,42.50
2019-03-22T08:43:59.413Z,44.27
2019-03-22T08:46:27.585Z,40.05
2019-03-22T08:48:55.801Z,41.15
2019-03-22T08:51:24.052Z,41.60
2019-03-22T08:53:55.400Z,45.48
2019-03-22T08:56:22.069Z,44.27
2019-03-22T08:58:50.171Z,39.78
2019-03-22T09:01:18.471Z,41.77
2019-03-22T09:03:46.617Z,41.83
2019-03-22T09:06:14.828Z,41.77
2019-03-22T09:08:43.068Z,36.38
2019-03-22T09:11:11.232Z,38.05
2019-03-22T09:13:39.433Z,36.10
2019-03-22T09:16:07.578Z,36.50
2019-03-22T09:18:35.669Z,34.80
2019-03-22T09:21:03.857Z,37.70
2019-03-22T09:23:32.023Z,37.95
2019-03-22T09:26:00.305Z,38.48
2019-03-22T09:28:28.482Z,36.63
2019-03-22T09:31:09.375Z,34.63
2019-03-22T09:33:26.480Z,38.42
2019-03-22T09:35:54.642Z,34.35
2019-03-22T09:38:22.827Z,34.67
2019-03-22T09:40:51.127Z,39.67
2019-03-22T09:43:19.303Z,34.65
2019-03-22T09:45:47.491Z,34.60
2019-03-22T09:48:17.483Z,39.85
2019-03-22T09:51:08.715Z,34.88
2019-03-22T09:53:39.422Z,34.03
2019-03-22T09:56:30.124Z,37.15
2019-03-22T09:59:03.089Z,35.05
2019-03-22T10:01:31.393Z,33.63
2019-03-22T10:04:35.609Z,32.50
2019-03-22T10:07:03.986Z,32.33
2019-03-22T10:09:32.135Z,31.70
2019-03-22T10:12:00.415Z,31.55
2019-03-22T10:14:31.280Z,31.15
2019-03-22T10:16:58.432Z,36.05
2019-03-22T10:19:26.662Z,29.55
2019-03-22T10:21:54.876Z,31.27
2019-03-22T10:24:23.083Z,32.93
2019-03-22T10:26:51.322Z,35.48
2019-03-22T10:29:19.487Z,35.80
2019-03-22T10:31:50.288Z,32.25
2019-03-22T10:34:21.125Z,31.93
2019-03-22T10:36:49.434Z,34.67
2019-03-22T10:39:17.633Z,33.28
2019-03-22T10:41:45.921Z,32.33
2019-03-22T10:44:14.131Z,30.97
2019-03-22T10:46:42.265Z,30.27
2019-03-22T10:49:10.407Z,33.25
2019-03-22T10:51:38.506Z,30.50
2019-03-22T10:54:06.695Z,29.98
2019-03-22T10:56:34.878Z,32.58
2019-03-22T10:59:03.054Z,31.65
2019-03-22T11:01:31.180Z,36.75
2019-03-22T11:03:59.536Z,28.27
2019-03-22T11:06:27.962Z,31.33
2019-03-22T11:08:56.835Z,30.27
2019-03-22T11:11:25.011Z,30.12
2019-03-22T11:13:53.136Z,28.38
2019-03-22T11:16:21.250Z,27.27
2019-03-22T11:18:49.441Z,31.27
2019-03-22T11:21:17.588Z,28.17
2019-03-22T11:23:45.726Z,28.05
2019-03-22T11:26:13.902Z,27.25
2019-03-22T11:28:42.084Z,27.48
2019-03-22T11:31:10.263Z,30.05
2019-03-22T11:33:38.385Z,27.98
2019-03-22T11:36:06.526Z,29.70
2019-03-22T11:38:34.645Z,25.37
2019-03-22T11:41:02.842Z,27.55
2019-03-22T11:43:34.411Z,28.00
2019-03-22T11:46:02.083Z,26.90
2019-03-22T11:48:33.196Z,26.20
2019-03-22T11:51:09.346Z,26.40
2019-03-22T11:53:37.517Z,27.05
2019-03-22T11:56:05.926Z,22.93
2019-03-22T11:58:34.038Z,22.65
2019-03-22T12:01:02.203Z,22.73
2019-03-22T12:03:30.323Z,20.15
2019-03-22T12:05:58.509Z,20.72
2019-03-22T12:08:26.641Z,20.48
2019-03-22T12:10:54.809Z,19.15
2019-03-22T12:13:22.959Z,19.40
2019-03-22T12:15:51.083Z,20.68
2019-03-22T12:18:19.210Z,19.12
2019-03-22T12:20:47.334Z,21.42
2019-03-22T12:23:15.455Z,18.52
2019-03-22T12:25:43.640Z,20.48
2019-03-22T12:28:11.905Z,21.33
2019-03-22T12:30:40.021Z,21.62
2019-03-22T12:33:08.181Z,19.70
2019-03-22T12:35:36.317Z,18.87
2019-03-22T12:38:04.451Z,21.80
2019-03-22T12:40:32.610Z,22.17
2019-03-22T12:43:00.762Z,21.10
2019-03-22T12:45:29.163Z,21.50
2019-03-22T12:47:57.301Z,19.60
2019-03-22T12:50:25.617Z,20.17
2019-03-22T12:52:53.809Z,23.73
2019-03-22T12:55:21.938Z,18.82
2019-03-22T12:57:50.074Z,19.27
2019-03-22T13:00:19.282Z,20.62
2019-03-22T13:02:47.442Z,19.02
2019-03-22T13:05:15.652Z,17.80
2019-03-22T13:07:43.810Z,19.67
2019-03-22T13:10:12.281Z,19.37
2019-03-22T13:12:40.426Z,18.37
2019-03-22T13:15:08.626Z,23.47
2019-03-22T13:17:36.748Z,21.25
2019-03-22T13:20:05.713Z,20.32
2019-03-22T13:22:33.890Z,19.50
2019-03-22T13:25:02.033Z,19.98
2019-03-22T13:27:30.170Z,19.45
2019-03-22T13:29:58.305Z,21.17
2019-03-22T13:32:26.454Z,21.75
2019-03-22T13:34:54.611Z,20.12
2019-03-22T13:37:22.761Z,23.27
2019-03-22T13:39:50.977Z,20.70
2019-03-22T13:42:19.080Z,24.40
2019-03-22T13:44:47.251Z,21.62
2019-03-22T13:47:15.359Z,24.25
2019-03-22T13:49:43.524Z,24.12
2019-03-22T13:52:11.703Z,22.85
2019-03-22T13:54:39.842Z,22.77
2019-03-22T13:57:08.099Z,25.10
2019-03-22T13:59:36.326Z,23.02
2019-03-22T14:02:04.446Z,24.05
2019-03-22T14:04:32.587Z,22.82
2019-03-22T14:07:00.805Z,23.75
2019-03-22T14:09:28.945Z,21.40
2019-03-22T14:11:57.074Z,22.98
2019-03-22T14:14:25.259Z,22.25
2019-03-22T14:16:54.096Z,23.02
2019-03-22T14:19:22.389Z,23.10
2019-03-22T14:21:50.587Z,23.70
2019-03-22T14:24:18.721Z,23.75
2019-03-22T14:26:46.859Z,26.45
2019-03-22T14:29:15.005Z,23.47
2019-03-22T14:31:43.140Z,25.25
2019-03-22T14:34:11.264Z,23.35
2019-03-22T14:36:39.409Z,23.87
2019-03-22T14:39:08.291Z,23.90
2019-03-22T14:41:36.487Z,25.15
2019-03-22T14:44:04.666Z,25.37
2019-03-22T14:46:32.806Z,25.02
2019-03-22T14:49:00.923Z,23.85
2019-03-22T14:51:29.073Z,24.67
2019-03-22T14:53:57.282Z,24.52
2019-03-22T14:56:25.454Z,25.80
2019-03-22T14:58:53.600Z,24.05
2019-03-22T15:01:21.762Z,24.85
2019-03-22T15:03:50.026Z,25.92
2019-03-22T15:06:18.187Z,25.77
2019-03-22T15:08:46.396Z,25.70
2019-03-22T15:11:14.551Z,27.20
2019-03-22T15:13:51.784Z,29.77
2019-03-22T15:16:48.219Z,24.40
2019-03-22T15:19:34.091Z,25.15
2019-03-22T15:22:33.256Z,27.75
2019-03-22T15:25:19.027Z,26.90
2019-03-22T15:28:03.353Z,28.90
2019-03-22T15:30:53.497Z,28.05
2019-03-22T15:33:49.994Z,27.65
2019-03-22T15:36:42.400Z,26.75
2019-03-22T15:39:30.471Z,25.50
2019-03-22T15:41:58.889Z,25.20
2019-03-22T15:44:27.051Z,23.60
2019-03-22T15:46:55.270Z,23.83
2019-03-22T15:49:23.397Z,23.62
2019-03-22T15:51:51.543Z,25.37
2019-03-22T15:54:19.693Z,29.95
2019-03-22T15:56:47.939Z,26.33
2019-03-22T15:59:16.081Z,27.35
2019-03-22T16:01:44.182Z,27.82
2019-03-22T16:04:12.346Z,26.27
2019-03-22T16:06:40.495Z,27.10
2019-03-22T16:09:08.673Z,24.00
2019-03-22T16:11:36.847Z,28.50
2019-03-22T16:14:05.399Z,28.90
2019-03-22T16:16:33.574Z,23.18
2019-03-22T16:19:01.801Z,23.00
2019-03-22T16:21:29.938Z,23.90
2019-03-22T16:23:58.071Z,22.30
2019-03-22T16:26:26.174Z,25.05
2019-03-22T16:28:54.333Z,23.15
2019-03-22T16:31:22.454Z,23.07
2019-03-22T16:33:54.354Z,19.95
2019-03-22T16:36:20.465Z,21.70
2019-03-22T16:38:48.630Z,23.30
2019-03-22T16:41:16.806Z,19.25
2019-03-22T16:43:44.966Z,21.97
2019-03-22T16:46:14.239Z,22.35
2019-03-22T16:48:42.530Z,22.80
2019-03-22T16:51:10.697Z,24.80
2019-03-22T16:53:38.871Z,22.25
2019-03-22T16:56:07.282Z,22.50
2019-03-22T16:58:35.427Z,24.00
2019-03-22T17:01:05.186Z,20.12
2019-03-22T17:03:33.342Z,21.77
2019-03-22T17:06:01.539Z,21.87
2019-03-22T17:08:29.662Z,22.87
2019-03-22T17:10:57.858Z,20.92
2019-03-22T17:13:27.058Z,21.50
2019-03-22T17:15:55.226Z,20.27
2019-03-22T17:18:23.337Z,21.02
2019-03-22T17:20:51.454Z,20.08
2019-03-22T17:23:20.847Z,21.42
2019-03-22T17:25:49.010Z,29.27
2019-03-22T17:28:17.175Z,24.00
2019-03-22T17:30:45.326Z,19.80
2019-03-22T17:33:13.522Z,19.77
2019-03-22T17:35:41.699Z,20.10
2019-03-22T17:38:09.902Z,20.62
2019-03-22T17:40:38.053Z,20.17
2019-03-22T17:43:06.166Z,20.43
2019-03-22T17:45:34.280Z,20.30
2019-03-22T17:48:02.413Z,20.48
2019-03-22T17:50:30.578Z,22.02
2019-03-22T17:52:58.761Z,20.92
2019-03-22T17:55:26.843Z,20.10
2019-03-22T17:57:55.022Z,21.52
2019-03-22T18:00:24.725Z,25.57
2019-03-22T18:02:52.985Z,23.75
2019-03-22T18:05:25.891Z,22.70
2019-03-22T18:07:53.841Z,22.98
2019-03-22T18:10:22.067Z,23.18
2019-03-22T18:12:50.233Z,23.55
2019-03-22T18:15:19.928Z,22.58
2019-03-22T18:17:48.073Z,23.25
2019-03-22T18:20:19.246Z,26.42
2019-03-22T18:22:47.429Z,25.88
2019-03-22T18:25:15.870Z,23.05
2019-03-22T18:27:47.368Z,21.60
2019-03-22T18:30:17.035Z,21.40
2019-03-22T18:32:45.251Z,22.20
2019-03-22T18:35:19.055Z,22.50
2019-03-22T18:37:50.358Z,21.05
2019-03-22T18:40:20.203Z,23.12
2019-03-22T18:42:50.308Z,18.80
2019-03-22T18:45:18.550Z,21.93
2019-03-22T18:47:53.041Z,20.25
2019-03-22T18:50:21.390Z,20.43
2019-03-22T18:52:50.211Z,21.52
2019-03-22T18:55:18.550Z,21.73
2019-03-22T18:57:47.025Z,19.10
2019-03-22T19:00:17.493Z,22.48
2019-03-22T19:02:45.539Z,22.85
2019-03-22T19:05:14.449Z,19.73
2019-03-22T19:07:43.948Z,22.85
2019-03-22T19:10:12.103Z,21.30
2019-03-22T19:12:40.233Z,22.35
2019-03-22T19:15:09.665Z,23.73
2019-03-22T19:17:38.899Z,22.67
2019-03-22T19:20:08.518Z,21.00
2019-03-22T19:22:36.937Z,21.97
2019-03-22T19:25:05.863Z,21.20
2019-03-22T19:27:34.129Z,21.37
2019-03-22T19:30:02.569Z,20.32
2019-03-22T19:32:30.915Z,22.62
2019-03-22T19:34:59.182Z,20.57
2019-03-22T19:37:27.425Z,21.62
2019-03-22T19:39:58.255Z,24.15
2019-03-22T19:42:27.634Z,20.17
2019-03-22T19:44:55.791Z,21.30
2019-03-22T19:47:27.320Z,22.07
2019-03-22T19:49:55.587Z,21.82
2019-03-22T19:52:23.825Z,23.45
2019-03-22T19:54:52.044Z,22.75
2019-03-22T19:57:20.418Z,22.60
2019-03-22T19:59:50.418Z,25.80
2019-03-22T20:02:18.655Z,20.92
2019-03-22T20:04:46.913Z,22.73
2019-03-22T20:07:15.179Z,20.17
2019-03-22T20:09:45.548Z,18.52
2019-03-22T20:12:13.798Z,20.57
2019-03-22T20:14:42.238Z,20.77
2019-03-22T20:17:10.628Z,18.17
2019-03-22T20:19:39.208Z,21.30
2019-03-22T20:22:07.416Z,20.05
2019-03-22T20:24:36.510Z,22.60
2019-03-22T20:27:04.689Z,22.35
2019-03-22T20:29:32.859Z,21.15
2019-03-22T20:32:02.061Z,21.87
2019-03-22T20:34:30.283Z,21.05
2019-03-22T20:36:59.526Z,19.67
2019-03-22T20:39:29.057Z,18.32
2019-03-22T20:41:59.049Z,19.75
2019-03-22T20:44:33.902Z,20.45
2019-03-22T20:46:57.281Z,20.68
2019-03-22T20:49:25.447Z,19.77
2019-03-22T20:51:53.656Z,19.95
2019-03-22T20:54:21.903Z,22.35
2019-03-22T20:56:50.176Z,25.17
2019-03-22T20:59:18.368Z,23.20
2019-03-22T21:01:46.593Z,21.50
2019-03-22T21:04:15.235Z,19.48
2019-03-22T21:06:43.535Z,20.23
2019-03-22T21:09:11.652Z,21.27
2019-03-22T21:11:41.913Z,22.20
2019-03-22T21:14:10.070Z,20.05
2019-03-22T21:16:38.337Z,18.52
2019-03-22T21:19:06.559Z,20.65
2019-03-22T21:21:37.134Z,17.45
2019-03-22T21:24:05.387Z,18.10
2019-03-22T21:26:33.997Z,20.15
2019-03-22T21:29:02.269Z,21.37
2019-03-22T21:31:30.654Z,18.82
2019-03-22T21:34:02.671Z,18.40
2019-03-22T21:36:32.627Z,18.00
2019-03-22T21:39:01.111Z,20.40
2019-03-22T21:41:29.345Z,17.65
2019-03-22T21:43:57.602Z,19.40
2019-03-22T21:46:27.170Z,18.80
2019-03-22T21:48:57.651Z,17.48
2019-03-22T21:51:25.932Z,16.50
2019-03-22T21:53:54.158Z,20.43
2019-03-22T21:56:22.347Z,18.35
2019-03-22T21:58:50.786Z,19.87
2019-03-22T22:01:22.307Z,17.70
2019-03-22T22:03:53.659Z,17.70
2019-03-22T22:06:21.873Z,18.77
2019-03-22T22:08:50.156Z,18.65
2019-03-22T22:11:18.714Z,19.32
2019-03-22T22:13:46.962Z,19.82
2019-03-22T22:16:15.147Z,17.85
2019-03-22T22:18:43.787Z,19.90
2019-03-22T22:21:13.051Z,17.37
2019-03-22T22:23:41.478Z,17.02
2019-03-22T22:26:09.715Z,18.15
2019-03-22T22:28:37.911Z,17.20
2019-03-22T22:31:06.516Z,16.87
2019-03-22T22:33:34.834Z,18.30
2019-03-22T22:36:03.147Z,15.80
2019-03-22T22:38:31.346Z,16.37
2019-03-22T22:41:02.369Z,15.75
2019-03-22T22:43:32.857Z,17.50
2019-03-22T22:46:02.235Z,17.00
2019-03-22T22:48:32.025Z,18.00
2019-03-22T22:51:01.929Z,17.30
2019-03-22T22:53:30.171Z,16.87
2019-03-22T22:55:58.558Z,17.75
2019-03-22T22:58:26.787Z,17.80
2019-03-22T23:00:54.990Z,17.55
2019-03-22T23:03:24.235Z,18.95
2019-03-22T23:05:52.458Z,19.50
2019-03-22T23:08:20.675Z,17.40
2019-03-22T23:10:48.949Z,16.82
2019-03-22T23:13:17.190Z,20.85
2019-03-22T23:15:45.531Z,18.00
2019-03-22T23:18:15.321Z,17.62
2019-03-22T23:20:43.626Z,19.48
2019-03-22T23:23:13.871Z,16.70
2019-03-22T23:25:41.973Z,17.52
2019-03-22T23:28:10.230Z,16.40
2019-03-22T23:30:38.527Z,16.62
2019-03-22T23:33:06.770Z,16.60
2019-03-22T23:35:35.019Z,16.80
2019-03-22T23:38:03.554Z,16.23
2019-03-22T23:40:31.867Z,16.50
2019-03-22T23:43:00.118Z,15.25
2019-03-22T23:45:30.025Z,17.02
2019-03-22T23:47:58.734Z,16.95
2019-03-22T23:50:27.586Z,16.00
2019-03-22T23:52:55.808Z,19.23
2019-03-22T23:55:25.306Z,16.05
2019-03-22T23:57:53.675Z,15.83
